sensor_id;sensor_type;location;lat;lon;timestamp;P1;durP1;ratioP1;P2;durP2;ratioP2
21833;SDS011;11079;51.092;3.458;2023-03-23T00:01:29;5.50;;;1.80;;
21833;SDS011;11079;51.092;3.458;2023-03-23T00:03:56;2.92;;;1.80;;
21833;SDS011;11079;51.092;3.458;2023-03-23T00:06:23;3.92;;;1.85;;
21833;SDS011;11079;51.092;3.458;2023-03-23T00:08:51;2.45;;;1.90;;
21833;SDS011;11079;51.092;3.458;2023-03-23T00:11:22;3.50;;;1.85;;
21833;SDS011;11079;51.092;3.458;2023-03-23T00:13:51;3.20;;;1.50;;
21833;SDS011;11079;51.092;3.458;2023-03-23T00:16:23;2.05;;;1.85;;
21833;SDS011;11079;51.092;3.458;2023-03-23T00:18:58;2.55;;;2.35;;
21833;SDS011;11079;51.092;3.458;2023-03-23T00:21:27;4.00;;;1.95;;
21833;SDS011;11079;51.092;3.458;2023-03-23T00:24:07;3.70;;;2.22;;
21833;SDS011;11079;51.092;3.458;2023-03-23T00:26:42;3.35;;;2.10;;
21833;SDS011;11079;51.092;3.458;2023-03-23T00:29:14;4.72;;;2.30;;
21833;SDS011;11079;51.092;3.458;2023-03-23T00:31:46;6.18;;;2.40;;
21833;SDS011;11079;51.092;3.458;2023-03-23T00:34:12;3.35;;;1.90;;
21833;SDS011;11079;51.092;3.458;2023-03-23T00:36:43;2.03;;;1.73;;
21833;SDS011;11079;51.092;3.458;2023-03-23T00:39:10;4.43;;;2.50;;
21833;SDS011;11079;51.092;3.458;2023-03-23T00:41:37;2.60;;;2.17;;
21833;SDS011;11079;51.092;3.458;2023-03-23T00:44:03;2.90;;;2.00;;
21833;SDS011;11079;51.092;3.458;2023-03-23T00:46:29;3.17;;;2.10;;
21833;SDS011;11079;51.092;3.458;2023-03-23T00:48:55;3.20;;;1.80;;
21833;SDS011;11079;51.092;3.458;2023-03-23T00:51:22;3.15;;;2.20;;
21833;SDS011;11079;51.092;3.458;2023-03-23T00:53:49;4.18;;;2.78;;
21833;SDS011;11079;51.092;3.458;2023-03-23T00:56:15;3.85;;;1.95;;
21833;SDS011;11079;51.092;3.458;2023-03-23T00:58:40;3.65;;;2.00;;
21833;SDS011;11079;51.092;3.458;2023-03-23T01:01:06;2.70;;;1.80;;
21833;SDS011;11079;51.092;3.458;2023-03-23T01:03:33;3.80;;;1.63;;
21833;SDS011;11079;51.092;3.458;2023-03-23T01:06:09;4.85;;;1.70;;
21833;SDS011;11079;51.092;3.458;2023-03-23T01:08:39;4.70;;;2.00;;
21833;SDS011;11079;51.092;3.458;2023-03-23T01:11:13;3.78;;;1.80;;
21833;SDS011;11079;51.092;3.458;2023-03-23T01:13:40;3.65;;;1.98;;
21833;SDS011;11079;51.092;3.458;2023-03-23T01:16:10;6.35;;;2.30;;
21833;SDS011;11079;51.092;3.458;2023-03-23T01:18:36;3.17;;;2.22;;
21833;SDS011;11079;51.092;3.458;2023-03-23T01:21:10;3.63;;;2.05;;
21833;SDS011;11079;51.092;3.458;2023-03-23T01:23:37;2.78;;;1.83;;
21833;SDS011;11079;51.092;3.458;2023-03-23T01:26:07;3.13;;;2.00;;
21833;SDS011;11079;51.092;3.458;2023-03-23T01:28:37;3.13;;;2.00;;
21833;SDS011;11079;51.092;3.458;2023-03-23T01:31:04;4.53;;;2.10;;
21833;SDS011;11079;51.092;3.458;2023-03-23T01:33:31;2.45;;;1.88;;
21833;SDS011;11079;51.092;3.458;2023-03-23T01:35:58;3.75;;;2.00;;
21833;SDS011;11079;51.092;3.458;2023-03-23T01:38:27;2.78;;;1.90;;
21833;SDS011;11079;51.092;3.458;2023-03-23T01:40:52;3.53;;;1.95;;
21833;SDS011;11079;51.092;3.458;2023-03-23T01:43:18;2.22;;;1.70;;
21833;SDS011;11079;51.092;3.458;2023-03-23T01:45:44;2.38;;;1.63;;
21833;SDS011;11079;51.092;3.458;2023-03-23T01:48:13;2.67;;;1.83;;
21833;SDS011;11079;51.092;3.458;2023-03-23T01:50:42;4.05;;;1.98;;
21833;SDS011;11079;51.092;3.458;2023-03-23T01:53:15;4.45;;;1.60;;
21833;SDS011;11079;51.092;3.458;2023-03-23T01:55:41;4.07;;;2.03;;
21833;SDS011;11079;51.092;3.458;2023-03-23T01:58:13;2.92;;;1.73;;
21833;SDS011;11079;51.092;3.458;2023-03-23T02:00:39;2.15;;;1.90;;
21833;SDS011;11079;51.092;3.458;2023-03-23T02:03:07;2.47;;;1.65;;
21833;SDS011;11079;51.092;3.458;2023-03-23T02:05:36;2.42;;;1.70;;
21833;SDS011;11079;51.092;3.458;2023-03-23T02:08:04;3.13;;;1.80;;
21833;SDS011;11079;51.092;3.458;2023-03-23T02:10:32;3.17;;;1.55;;
21833;SDS011;11079;51.092;3.458;2023-03-23T02:12:59;2.40;;;1.52;;
21833;SDS011;11079;51.092;3.458;2023-03-23T02:15:27;3.42;;;1.67;;
21833;SDS011;11079;51.092;3.458;2023-03-23T02:28:38;2.63;;;1.75;;
21833;SDS011;11079;51.092;3.458;2023-03-23T02:36:45;2.40;;;1.40;;
21833;SDS011;11079;51.092;3.458;2023-03-23T02:39:37;5.45;;;2.08;;
21833;SDS011;11079;51.092;3.458;2023-03-23T02:42:11;4.20;;;1.80;;
21833;SDS011;11079;51.092;3.458;2023-03-23T02:44:41;6.32;;;1.85;;
21833;SDS011;11079;51.092;3.458;2023-03-23T02:47:14;5.30;;;1.83;;
21833;SDS011;11079;51.092;3.458;2023-03-23T02:49:48;4.25;;;1.50;;
21833;SDS011;11079;51.092;3.458;2023-03-23T02:52:19;4.00;;;1.40;;
21833;SDS011;11079;51.092;3.458;2023-03-23T02:54:48;5.80;;;1.80;;
21833;SDS011;11079;51.092;3.458;2023-03-23T02:57:15;5.60;;;1.50;;
21833;SDS011;11079;51.092;3.458;2023-03-23T02:59:42;8.45;;;1.60;;
21833;SDS011;11079;51.092;3.458;2023-03-23T03:02:17;3.45;;;1.65;;
21833;SDS011;11079;51.092;3.458;2023-03-23T03:05:03;6.85;;;1.83;;
21833;SDS011;11079;51.092;3.458;2023-03-23T03:07:43;6.25;;;1.45;;
21833;SDS011;11079;51.092;3.458;2023-03-23T03:13:13;5.68;;;1.90;;
21833;SDS011;11079;51.092;3.458;2023-03-23T03:18:34;3.63;;;1.30;;
21833;SDS011;11079;51.092;3.458;2023-03-23T03:21:15;3.97;;;1.27;;
21833;SDS011;11079;51.092;3.458;2023-03-23T03:23:45;6.40;;;1.90;;
21833;SDS011;11079;51.092;3.458;2023-03-23T03:26:14;6.72;;;1.92;;
21833;SDS011;11079;51.092;3.458;2023-03-23T03:28:42;3.90;;;1.48;;
21833;SDS011;11079;51.092;3.458;2023-03-23T03:31:12;6.10;;;1.60;;
21833;SDS011;11079;51.092;3.458;2023-03-23T03:33:40;7.20;;;1.60;;
21833;SDS011;11079;51.092;3.458;2023-03-23T03:36:05;4.40;;;1.38;;
21833;SDS011;11079;51.092;3.458;2023-03-23T03:38:41;4.00;;;1.73;;
21833;SDS011;11079;51.092;3.458;2023-03-23T03:41:08;5.07;;;1.50;;
21833;SDS011;11079;51.092;3.458;2023-03-23T03:43:33;6.47;;;2.30;;
21833;SDS011;11079;51.092;3.458;2023-03-23T03:46:00;5.43;;;1.92;;
21833;SDS011;11079;51.092;3.458;2023-03-23T03:48:25;4.80;;;1.90;;
21833;SDS011;11079;51.092;3.458;2023-03-23T03:50:51;6.45;;;2.33;;
21833;SDS011;11079;51.092;3.458;2023-03-23T03:53:17;5.68;;;1.40;;
21833;SDS011;11079;51.092;3.458;2023-03-23T03:55:42;11.07;;;1.95;;
21833;SDS011;11079;51.092;3.458;2023-03-23T03:58:13;4.85;;;2.03;;
21833;SDS011;11079;51.092;3.458;2023-03-23T04:00:39;6.55;;;1.83;;
21833;SDS011;11079;51.092;3.458;2023-03-23T04:03:06;8.95;;;2.22;;
21833;SDS011;11079;51.092;3.458;2023-03-23T04:05:32;8.40;;;1.88;;
21833;SDS011;11079;51.092;3.458;2023-03-23T04:07:58;3.55;;;1.33;;
21833;SDS011;11079;51.092;3.458;2023-03-23T04:10:27;5.32;;;1.50;;
21833;SDS011;11079;51.092;3.458;2023-03-23T04:12:54;7.22;;;1.60;;
21833;SDS011;11079;51.092;3.458;2023-03-23T04:15:20;4.65;;;1.63;;
21833;SDS011;11079;51.092;3.458;2023-03-23T04:17:46;7.00;;;1.83;;
21833;SDS011;11079;51.092;3.458;2023-03-23T04:20:12;7.10;;;1.90;;
21833;SDS011;11079;51.092;3.458;2023-03-23T04:22:46;8.38;;;2.53;;
21833;SDS011;11079;51.092;3.458;2023-03-23T04:25:14;7.30;;;2.15;;
21833;SDS011;11079;51.092;3.458;2023-03-23T04:27:42;6.22;;;2.67;;
21833;SDS011;11079;51.092;3.458;2023-03-23T04:30:09;6.20;;;2.67;;
21833;SDS011;11079;51.092;3.458;2023-03-23T04:32:38;7.28;;;2.28;;
21833;SDS011;11079;51.092;3.458;2023-03-23T04:35:06;7.38;;;1.98;;
21833;SDS011;11079;51.092;3.458;2023-03-23T04:37:37;6.13;;;1.90;;
21833;SDS011;11079;51.092;3.458;2023-03-23T04:40:03;12.57;;;2.28;;
21833;SDS011;11079;51.092;3.458;2023-03-23T04:42:39;8.20;;;2.20;;
21833;SDS011;11079;51.092;3.458;2023-03-23T04:45:10;10.48;;;2.65;;
21833;SDS011;11079;51.092;3.458;2023-03-23T04:47:38;6.43;;;2.00;;
21833;SDS011;11079;51.092;3.458;2023-03-23T04:50:07;7.65;;;1.45;;
21833;SDS011;11079;51.092;3.458;2023-03-23T04:52:35;1.20;;;1.10;;
21833;SDS011;11079;51.092;3.458;2023-03-23T04:55:06;0.10;;;0.10;;
21833;SDS011;11079;51.092;3.458;2023-03-23T04:57:33;0.10;;;0.10;;
21833;SDS011;11079;51.092;3.458;2023-03-23T05:00:00;0.20;;;0.20;;
21833;SDS011;11079;51.092;3.458;2023-03-23T05:02:37;0.10;;;0.10;;
21833;SDS011;11079;51.092;3.458;2023-03-23T05:05:05;0.20;;;0.20;;
21833;SDS011;11079;51.092;3.458;2023-03-23T05:07:31;0.20;;;0.20;;
21833;SDS011;11079;51.092;3.458;2023-03-23T05:09:57;0.10;;;0.10;;
21833;SDS011;11079;51.092;3.458;2023-03-23T05:12:23;0.10;;;0.10;;
21833;SDS011;11079;51.092;3.458;2023-03-23T05:14:49;0.43;;;0.43;;
21833;SDS011;11079;51.092;3.458;2023-03-23T05:17:15;0.30;;;0.30;;
21833;SDS011;11079;51.092;3.458;2023-03-23T05:19:42;0.93;;;0.93;;
21833;SDS011;11079;51.092;3.458;2023-03-23T05:22:12;0.43;;;0.43;;
21833;SDS011;11079;51.092;3.458;2023-03-23T05:24:39;0.35;;;0.32;;
21833;SDS011;11079;51.092;3.458;2023-03-23T05:27:05;1.15;;;0.82;;
21833;SDS011;11079;51.092;3.458;2023-03-23T05:29:33;0.20;;;0.20;;
21833;SDS011;11079;51.092;3.458;2023-03-23T05:32:01;0.32;;;0.32;;
21833;SDS011;11079;51.092;3.458;2023-03-23T05:34:28;0.40;;;0.40;;
21833;SDS011;11079;51.092;3.458;2023-03-23T05:36:57;0.80;;;0.73;;
21833;SDS011;11079;51.092;3.458;2023-03-23T05:39:24;0.30;;;0.30;;
21833;SDS011;11079;51.092;3.458;2023-03-23T05:41:51;0.30;;;0.30;;
21833;SDS011;11079;51.092;3.458;2023-03-23T05:44:18;0.20;;;0.20;;
21833;SDS011;11079;51.092;3.458;2023-03-23T05:46:44;0.63;;;0.63;;
21833;SDS011;11079;51.092;3.458;2023-03-23T05:49:15;0.10;;;0.10;;
21833;SDS011;11079;51.092;3.458;2023-03-23T05:51:51;0.20;;;0.20;;
21833;SDS011;11079;51.092;3.458;2023-03-23T05:54:17;0.47;;;0.43;;
21833;SDS011;11079;51.092;3.458;2023-03-23T05:56:44;0.20;;;0.20;;
21833;SDS011;11079;51.092;3.458;2023-03-23T05:59:10;0.20;;;0.20;;
21833;SDS011;11079;51.092;3.458;2023-03-23T06:01:37;0.20;;;0.20;;
21833;SDS011;11079;51.092;3.458;2023-03-23T06:04:04;0.20;;;0.20;;
21833;SDS011;11079;51.092;3.458;2023-03-23T06:06:30;0.20;;;0.20;;
21833;SDS011;11079;51.092;3.458;2023-03-23T06:08:57;0.52;;;0.52;;
21833;SDS011;11079;51.092;3.458;2023-03-23T06:11:24;0.20;;;0.20;;
21833;SDS011;11079;51.092;3.458;2023-03-23T06:13:51;0.50;;;0.50;;
21833;SDS011;11079;51.092;3.458;2023-03-23T06:16:17;0.75;;;0.73;;
21833;SDS011;11079;51.092;3.458;2023-03-23T06:18:44;4.97;;;1.45;;
21833;SDS011;11079;51.092;3.458;2023-03-23T06:21:10;6.75;;;1.88;;
21833;SDS011;11079;51.092;3.458;2023-03-23T06:23:36;4.93;;;1.60;;
21833;SDS011;11079;51.092;3.458;2023-03-23T06:26:04;3.65;;;1.15;;
21833;SDS011;11079;51.092;3.458;2023-03-23T06:28:32;3.85;;;1.15;;
21833;SDS011;11079;51.092;3.458;2023-03-23T06:30:59;6.32;;;1.83;;
21833;SDS011;11079;51.092;3.458;2023-03-23T06:33:36;4.82;;;1.23;;
21833;SDS011;11079;51.092;3.458;2023-03-23T06:36:12;8.20;;;1.90;;
21833;SDS011;11079;51.092;3.458;2023-03-23T06:38:38;6.47;;;1.88;;
21833;SDS011;11079;51.092;3.458;2023-03-23T06:41:04;4.50;;;1.52;;
21833;SDS011;11079;51.092;3.458;2023-03-23T06:43:30;7.60;;;1.38;;
21833;SDS011;11079;51.092;3.458;2023-03-23T06:45:58;4.43;;;2.00;;
21833;SDS011;11079;51.092;3.458;2023-03-23T06:48:24;5.07;;;1.63;;
21833;SDS011;11079;51.092;3.458;2023-03-23T06:50:50;5.80;;;2.15;;
21833;SDS011;11079;51.092;3.458;2023-03-23T06:53:16;5.68;;;2.03;;
21833;SDS011;11079;51.092;3.458;2023-03-23T06:55:42;4.95;;;1.45;;
21833;SDS011;11079;51.092;3.458;2023-03-23T06:58:08;7.68;;;1.70;;
21833;SDS011;11079;51.092;3.458;2023-03-23T07:00:35;6.20;;;1.60;;
21833;SDS011;11079;51.092;3.458;2023-03-23T07:03:01;4.47;;;1.85;;
21833;SDS011;11079;51.092;3.458;2023-03-23T07:05:26;6.78;;;1.70;;
21833;SDS011;11079;51.092;3.458;2023-03-23T07:07:52;8.02;;;1.90;;
21833;SDS011;11079;51.092;3.458;2023-03-23T07:10:18;4.05;;;1.63;;
21833;SDS011;11079;51.092;3.458;2023-03-23T07:12:44;7.35;;;1.80;;
21833;SDS011;11079;51.092;3.458;2023-03-23T07:15:10;8.90;;;1.90;;
21833;SDS011;11079;51.092;3.458;2023-03-23T07:17:37;10.60;;;1.90;;
21833;SDS011;11079;51.092;3.458;2023-03-23T07:20:04;6.85;;;1.40;;
21833;SDS011;11079;51.092;3.458;2023-03-23T07:22:31;8.85;;;1.88;;
21833;SDS011;11079;51.092;3.458;2023-03-23T07:24:56;6.10;;;1.73;;
21833;SDS011;11079;51.092;3.458;2023-03-23T07:27:22;6.15;;;1.60;;
21833;SDS011;11079;51.092;3.458;2023-03-23T07:29:48;7.05;;;1.85;;
21833;SDS011;11079;51.092;3.458;2023-03-23T07:32:14;4.95;;;1.35;;
21833;SDS011;11079;51.092;3.458;2023-03-23T07:34:39;7.72;;;1.95;;
21833;SDS011;11079;51.092;3.458;2023-03-23T07:37:06;5.43;;;2.13;;
21833;SDS011;11079;51.092;3.458;2023-03-23T07:39:32;3.33;;;1.40;;
21833;SDS011;11079;51.092;3.458;2023-03-23T07:41:58;6.93;;;1.95;;
21833;SDS011;11079;51.092;3.458;2023-03-23T07:44:24;7.57;;;1.52;;
21833;SDS011;11079;51.092;3.458;2023-03-23T07:46:50;8.18;;;1.58;;
21833;SDS011;11079;51.092;3.458;2023-03-23T07:49:16;4.63;;;1.40;;
21833;SDS011;11079;51.092;3.458;2023-03-23T07:51:42;5.65;;;1.63;;
21833;SDS011;11079;51.092;3.458;2023-03-23T07:54:08;3.78;;;1.38;;
21833;SDS011;11079;51.092;3.458;2023-03-23T07:56:34;5.15;;;1.50;;
21833;SDS011;11079;51.092;3.458;2023-03-23T07:59:01;4.15;;;1.40;;
21833;SDS011;11079;51.092;3.458;2023-03-23T08:01:27;3.80;;;0.85;;
21833;SDS011;11079;51.092;3.458;2023-03-23T08:03:53;4.43;;;1.05;;
21833;SDS011;11079;51.092;3.458;2023-03-23T08:06:22;5.97;;;1.60;;
21833;SDS011;11079;51.092;3.458;2023-03-23T08:08:48;5.93;;;1.20;;
21833;SDS011;11079;51.092;3.458;2023-03-23T08:11:14;6.25;;;1.33;;
21833;SDS011;11079;51.092;3.458;2023-03-23T08:13:41;8.95;;;1.90;;
21833;SDS011;11079;51.092;3.458;2023-03-23T08:16:07;5.80;;;1.73;;
21833;SDS011;11079;51.092;3.458;2023-03-23T08:18:34;5.18;;;1.20;;
21833;SDS011;11079;51.092;3.458;2023-03-23T08:21:01;4.30;;;1.30;;
21833;SDS011;11079;51.092;3.458;2023-03-23T08:23:29;7.22;;;1.50;;
21833;SDS011;11079;51.092;3.458;2023-03-23T08:25:55;6.63;;;1.77;;
21833;SDS011;11079;51.092;3.458;2023-03-23T08:28:21;6.82;;;2.17;;
21833;SDS011;11079;51.092;3.458;2023-03-23T08:30:48;7.05;;;1.55;;
21833;SDS011;11079;51.092;3.458;2023-03-23T08:33:14;6.88;;;1.80;;
21833;SDS011;11079;51.092;3.458;2023-03-23T08:35:41;6.78;;;1.55;;
21833;SDS011;11079;51.092;3.458;2023-03-23T08:38:08;7.68;;;1.60;;
21833;SDS011;11079;51.092;3.458;2023-03-23T08:40:35;6.60;;;2.25;;
21833;SDS011;11079;51.092;3.458;2023-03-23T08:43:01;10.05;;;2.35;;
21833;SDS011;11079;51.092;3.458;2023-03-23T08:45:27;11.70;;;2.00;;
21833;SDS011;11079;51.092;3.458;2023-03-23T08:47:53;8.88;;;1.95;;
21833;SDS011;11079;51.092;3.458;2023-03-23T08:50:22;9.45;;;1.80;;
21833;SDS011;11079;51.092;3.458;2023-03-23T08:52:50;6.38;;;1.50;;
21833;SDS011;11079;51.092;3.458;2023-03-23T08:55:16;6.95;;;1.50;;
21833;SDS011;11079;51.092;3.458;2023-03-23T08:57:43;6.38;;;1.50;;
21833;SDS011;11079;51.092;3.458;2023-03-23T09:00:10;6.75;;;1.67;;
21833;SDS011;11079;51.092;3.458;2023-03-23T09:02:43;4.72;;;1.67;;
21833;SDS011;11079;51.092;3.458;2023-03-23T09:05:14;6.70;;;1.08;;
21833;SDS011;11079;51.092;3.458;2023-03-23T09:07:42;4.18;;;1.35;;
21833;SDS011;11079;51.092;3.458;2023-03-23T09:10:11;5.15;;;1.45;;
21833;SDS011;11079;51.092;3.458;2023-03-23T09:12:43;4.00;;;1.20;;
21833;SDS011;11079;51.092;3.458;2023-03-23T09:15:12;4.70;;;1.35;;
21833;SDS011;11079;51.092;3.458;2023-03-23T09:17:47;3.15;;;1.52;;
21833;SDS011;11079;51.092;3.458;2023-03-23T09:20:16;5.10;;;1.10;;
21833;SDS011;11079;51.092;3.458;2023-03-23T09:22:46;4.63;;;1.00;;
21833;SDS011;11079;51.092;3.458;2023-03-23T09:25:15;3.88;;;1.13;;
21833;SDS011;11079;51.092;3.458;2023-03-23T09:27:44;5.18;;;1.42;;
21833;SDS011;11079;51.092;3.458;2023-03-23T09:30:12;3.00;;;1.17;;
21833;SDS011;11079;51.092;3.458;2023-03-23T09:32:39;4.63;;;1.40;;
21833;SDS011;11079;51.092;3.458;2023-03-23T09:35:07;4.80;;;1.13;;
21833;SDS011;11079;51.092;3.458;2023-03-23T09:37:34;5.28;;;1.83;;
21833;SDS011;11079;51.092;3.458;2023-03-23T09:40:05;5.05;;;1.73;;
21833;SDS011;11079;51.092;3.458;2023-03-23T09:50:17;4.07;;;1.70;;
21833;SDS011;11079;51.092;3.458;2023-03-23T09:52:55;9.95;;;2.05;;
21833;SDS011;11079;51.092;3.458;2023-03-23T09:55:33;6.32;;;2.03;;
21833;SDS011;11079;51.092;3.458;2023-03-23T10:01:02;7.75;;;1.42;;
21833;SDS011;11079;51.092;3.458;2023-03-23T10:03:55;5.75;;;1.48;;
21833;SDS011;11079;51.092;3.458;2023-03-23T10:06:30;5.20;;;1.40;;
21833;SDS011;11079;51.092;3.458;2023-03-23T10:08:57;5.45;;;1.83;;
21833;SDS011;11079;51.092;3.458;2023-03-23T10:11:35;6.78;;;1.60;;
21833;SDS011;11079;51.092;3.458;2023-03-23T10:17:13;9.15;;;1.90;;
21833;SDS011;11079;51.092;3.458;2023-03-23T10:19:57;9.27;;;1.80;;
21833;SDS011;11079;51.092;3.458;2023-03-23T10:25:16;7.53;;;2.00;;
21833;SDS011;11079;51.092;3.458;2023-03-23T10:27:56;5.68;;;1.65;;
21833;SDS011;11079;51.092;3.458;2023-03-23T10:30:33;7.68;;;2.03;;
21833;SDS011;11079;51.092;3.458;2023-03-23T10:35:43;7.75;;;1.92;;
21833;SDS011;11079;51.092;3.458;2023-03-23T10:38:14;8.07;;;2.03;;
21833;SDS011;11079;51.092;3.458;2023-03-23T10:40:49;4.68;;;1.80;;
21833;SDS011;11079;51.092;3.458;2023-03-23T10:43:19;7.57;;;1.58;;
21833;SDS011;11079;51.092;3.458;2023-03-23T10:45:52;7.07;;;1.65;;
21833;SDS011;11079;51.092;3.458;2023-03-23T10:48:30;8.38;;;2.03;;
21833;SDS011;11079;51.092;3.458;2023-03-23T10:51:00;7.80;;;1.85;;
21833;SDS011;11079;51.092;3.458;2023-03-23T10:55:57;8.77;;;2.30;;
21833;SDS011;11079;51.092;3.458;2023-03-23T10:58:25;6.38;;;1.90;;
21833;SDS011;11079;51.092;3.458;2023-03-23T11:00:57;9.18;;;2.53;;
21833;SDS011;11079;51.092;3.458;2023-03-23T11:03:39;9.52;;;2.03;;
21833;SDS011;11079;51.092;3.458;2023-03-23T11:06:10;6.28;;;2.00;;
21833;SDS011;11079;51.092;3.458;2023-03-23T11:08:48;10.20;;;2.47;;
21833;SDS011;11079;51.092;3.458;2023-03-23T11:11:18;10.70;;;2.55;;
21833;SDS011;11079;51.092;3.458;2023-03-23T11:13:55;7.70;;;2.25;;
21833;SDS011;11079;51.092;3.458;2023-03-23T11:16:28;9.48;;;1.70;;
21833;SDS011;11079;51.092;3.458;2023-03-23T11:18:56;6.85;;;2.28;;
21833;SDS011;11079;51.092;3.458;2023-03-23T11:21:23;8.18;;;2.10;;
21833;SDS011;11079;51.092;3.458;2023-03-23T11:23:58;7.70;;;2.33;;
21833;SDS011;11079;51.092;3.458;2023-03-23T11:26:25;10.23;;;2.35;;
21833;SDS011;11079;51.092;3.458;2023-03-23T11:28:53;11.45;;;1.95;;
21833;SDS011;11079;51.092;3.458;2023-03-23T11:31:24;4.63;;;1.33;;
21833;SDS011;11079;51.092;3.458;2023-03-23T11:34:03;7.53;;;1.42;;
21833;SDS011;11079;51.092;3.458;2023-03-23T11:36:36;4.97;;;1.40;;
21833;SDS011;11079;51.092;3.458;2023-03-23T11:39:27;9.68;;;2.60;;
21833;SDS011;11079;51.092;3.458;2023-03-23T11:45:38;8.80;;;2.80;;
21833;SDS011;11079;51.092;3.458;2023-03-23T11:50:54;8.15;;;2.30;;
21833;SDS011;11079;51.092;3.458;2023-03-23T11:59:13;6.97;;;2.05;;
21833;SDS011;11079;51.092;3.458;2023-03-23T12:01:53;6.07;;;1.60;;
21833;SDS011;11079;51.092;3.458;2023-03-23T12:15:22;8.65;;;2.00;;
21833;SDS011;11079;51.092;3.458;2023-03-23T12:21:03;7.32;;;2.47;;
21833;SDS011;11079;51.092;3.458;2023-03-23T12:26:22;10.88;;;2.60;;
21833;SDS011;11079;51.092;3.458;2023-03-23T12:40:47;12.20;;;2.50;;
21833;SDS011;11079;51.092;3.458;2023-03-23T12:48:57;13.98;;;2.92;;
21833;SDS011;11079;51.092;3.458;2023-03-23T12:54:52;12.30;;;3.03;;
21833;SDS011;11079;51.092;3.458;2023-03-23T13:07:52;7.85;;;2.58;;
21833;SDS011;11079;51.092;3.458;2023-03-23T13:12:50;9.45;;;2.85;;
21833;SDS011;11079;51.092;3.458;2023-03-23T13:18:02;11.70;;;2.50;;
21833;SDS011;11079;51.092;3.458;2023-03-23T13:23:29;8.50;;;2.30;;
21833;SDS011;11079;51.092;3.458;2023-03-23T13:26:03;8.30;;;2.42;;
21833;SDS011;11079;51.092;3.458;2023-03-23T13:28:33;10.80;;;2.85;;
21833;SDS011;11079;51.092;3.458;2023-03-23T13:31:13;9.73;;;2.28;;
21833;SDS011;11079;51.092;3.458;2023-03-23T13:33:51;12.38;;;2.95;;
21833;SDS011;11079;51.092;3.458;2023-03-23T13:39:06;9.98;;;2.80;;
21833;SDS011;11079;51.092;3.458;2023-03-23T13:41:54;9.63;;;2.45;;
21833;SDS011;11079;51.092;3.458;2023-03-23T13:44:38;10.80;;;2.67;;
21833;SDS011;11079;51.092;3.458;2023-03-23T13:49:52;9.98;;;2.50;;
21833;SDS011;11079;51.092;3.458;2023-03-23T13:53:12;8.40;;;2.80;;
21833;SDS011;11079;51.092;3.458;2023-03-23T13:58:09;8.85;;;3.22;;
21833;SDS011;11079;51.092;3.458;2023-03-23T14:03:36;9.98;;;2.30;;
21833;SDS011;11079;51.092;3.458;2023-03-23T14:06:06;8.93;;;2.10;;
21833;SDS011;11079;51.092;3.458;2023-03-23T14:08:39;8.93;;;2.50;;
21833;SDS011;11079;51.092;3.458;2023-03-23T14:11:14;7.90;;;2.42;;
21833;SDS011;11079;51.092;3.458;2023-03-23T14:18:46;6.60;;;2.63;;
21833;SDS011;11079;51.092;3.458;2023-03-23T14:21:39;9.43;;;2.72;;
21833;SDS011;11079;51.092;3.458;2023-03-23T14:24:17;6.63;;;2.42;;
21833;SDS011;11079;51.092;3.458;2023-03-23T14:26:48;8.73;;;2.58;;
21833;SDS011;11079;51.092;3.458;2023-03-23T14:29:17;10.77;;;2.97;;
21833;SDS011;11079;51.092;3.458;2023-03-23T14:31:44;9.07;;;2.50;;
21833;SDS011;11079;51.092;3.458;2023-03-23T14:34:18;12.27;;;2.92;;
21833;SDS011;11079;51.092;3.458;2023-03-23T14:36:45;7.82;;;2.53;;
21833;SDS011;11079;51.092;3.458;2023-03-23T14:41:37;10.90;;;2.88;;
21833;SDS011;11079;51.092;3.458;2023-03-23T14:44:05;10.25;;;2.42;;
21833;SDS011;11079;51.092;3.458;2023-03-23T14:46:34;8.63;;;2.30;;
21833;SDS011;11079;51.092;3.458;2023-03-23T14:49:04;8.95;;;2.65;;
21833;SDS011;11079;51.092;3.458;2023-03-23T14:51:30;9.77;;;2.72;;
21833;SDS011;11079;51.092;3.458;2023-03-23T14:53:57;9.85;;;2.83;;
21833;SDS011;11079;51.092;3.458;2023-03-23T14:56:31;7.50;;;2.20;;
21833;SDS011;11079;51.092;3.458;2023-03-23T14:59:02;7.32;;;2.28;;
21833;SDS011;11079;51.092;3.458;2023-03-23T15:01:31;9.48;;;2.90;;
21833;SDS011;11079;51.092;3.458;2023-03-23T15:06:28;7.28;;;2.53;;
21833;SDS011;11079;51.092;3.458;2023-03-23T15:08:56;9.43;;;2.65;;
21833;SDS011;11079;51.092;3.458;2023-03-23T15:11:32;9.40;;;3.92;;
21833;SDS011;11079;51.092;3.458;2023-03-23T15:14:22;12.50;;;3.08;;
21833;SDS011;11079;51.092;3.458;2023-03-23T15:16:48;10.13;;;2.60;;
21833;SDS011;11079;51.092;3.458;2023-03-23T15:19:21;11.80;;;2.83;;
21833;SDS011;11079;51.092;3.458;2023-03-23T15:21:56;8.63;;;3.20;;
21833;SDS011;11079;51.092;3.458;2023-03-23T15:24:40;9.05;;;2.63;;
21833;SDS011;11079;51.092;3.458;2023-03-23T15:27:24;9.00;;;2.70;;
21833;SDS011;11079;51.092;3.458;2023-03-23T15:29:58;8.52;;;3.00;;
21833;SDS011;11079;51.092;3.458;2023-03-23T15:32:30;8.32;;;2.70;;
21833;SDS011;11079;51.092;3.458;2023-03-23T15:35:04;8.77;;;2.70;;
21833;SDS011;11079;51.092;3.458;2023-03-23T15:37:41;12.82;;;2.67;;
21833;SDS011;11079;51.092;3.458;2023-03-23T15:40:16;10.80;;;2.72;;
21833;SDS011;11079;51.092;3.458;2023-03-23T15:42:43;10.63;;;3.63;;
21833;SDS011;11079;51.092;3.458;2023-03-23T15:50:17;12.55;;;3.17;;
21833;SDS011;11079;51.092;3.458;2023-03-23T15:52:45;10.15;;;2.45;;
21833;SDS011;11079;51.092;3.458;2023-03-23T15:57:50;6.75;;;2.53;;
21833;SDS011;11079;51.092;3.458;2023-03-23T16:00:18;14.07;;;2.60;;
21833;SDS011;11079;51.092;3.458;2023-03-23T16:02:45;13.07;;;3.08;;
21833;SDS011;11079;51.092;3.458;2023-03-23T16:05:13;10.10;;;3.05;;
21833;SDS011;11079;51.092;3.458;2023-03-23T16:07:39;14.85;;;3.40;;
21833;SDS011;11079;51.092;3.458;2023-03-23T16:10:05;10.95;;;3.30;;
21833;SDS011;11079;51.092;3.458;2023-03-23T16:12:35;10.63;;;3.65;;
21833;SDS011;11079;51.092;3.458;2023-03-23T16:15:01;14.02;;;3.60;;
21833;SDS011;11079;51.092;3.458;2023-03-23T16:17:26;11.75;;;3.42;;
21833;SDS011;11079;51.092;3.458;2023-03-23T16:19:52;11.68;;;3.40;;
21833;SDS011;11079;51.092;3.458;2023-03-23T16:22:17;13.65;;;3.58;;
21833;SDS011;11079;51.092;3.458;2023-03-23T16:24:43;8.65;;;2.72;;
21833;SDS011;11079;51.092;3.458;2023-03-23T16:27:12;10.15;;;3.53;;
21833;SDS011;11079;51.092;3.458;2023-03-23T16:29:38;11.05;;;3.00;;
21833;SDS011;11079;51.092;3.458;2023-03-23T16:32:03;16.67;;;3.63;;
21833;SDS011;11079;51.092;3.458;2023-03-23T16:34:29;9.98;;;2.58;;
21833;SDS011;11079;51.092;3.458;2023-03-23T16:36:57;7.55;;;1.88;;
21833;SDS011;11079;51.092;3.458;2023-03-23T16:39:23;6.32;;;2.25;;
21833;SDS011;11079;51.092;3.458;2023-03-23T16:41:48;7.85;;;2.80;;
21833;SDS011;11079;51.092;3.458;2023-03-23T16:44:14;10.13;;;2.30;;
21833;SDS011;11079;51.092;3.458;2023-03-23T16:46:40;8.27;;;2.60;;
21833;SDS011;11079;51.092;3.458;2023-03-23T16:49:06;10.20;;;2.40;;
21833;SDS011;11079;51.092;3.458;2023-03-23T16:51:31;9.30;;;2.03;;
21833;SDS011;11079;51.092;3.458;2023-03-23T16:53:57;7.13;;;2.17;;
21833;SDS011;11079;51.092;3.458;2023-03-23T16:56:23;6.63;;;2.20;;
21833;SDS011;11079;51.092;3.458;2023-03-23T16:58:49;12.73;;;3.10;;
21833;SDS011;11079;51.092;3.458;2023-03-23T17:01:14;16.95;;;3.83;;
21833;SDS011;11079;51.092;3.458;2023-03-23T17:03:40;7.55;;;3.20;;
21833;SDS011;11079;51.092;3.458;2023-03-23T17:06:06;6.10;;;2.13;;
21833;SDS011;11079;51.092;3.458;2023-03-23T17:08:32;12.15;;;2.63;;
21833;SDS011;11079;51.092;3.458;2023-03-23T17:10:58;7.72;;;2.58;;
21833;SDS011;11079;51.092;3.458;2023-03-23T17:13:24;8.23;;;2.25;;
21833;SDS011;11079;51.092;3.458;2023-03-23T17:15:52;7.35;;;2.80;;
21833;SDS011;11079;51.092;3.458;2023-03-23T17:18:20;10.70;;;2.83;;
21833;SDS011;11079;51.092;3.458;2023-03-23T17:20:46;9.20;;;2.90;;